createdAt,value
2019-01-11T00:02:35.143Z,69.07
2019-01-11T00:07:37.319Z,68.89
2019-01-11T00:12:40.219Z,69.55
2019-01-11T00:17:42.361Z,69.56
2019-01-11T00:22:44.789Z,69.66
2019-01-11T00:27:47.634Z,69.92
2019-01-11T00:32:49.827Z,69.77
2019-01-11T00:37:52.593Z,70.09
2019-01-11T00:42:55.012Z,70.06
2019-01-11T00:47:57.179Z,70.76
2019-01-11T00:52:59.377Z,70.29
2019-01-11T00:58:01.816Z,70.33
2019-01-11T01:03:04.291Z,71.03
2019-01-11T01:08:06.464Z,71.31
2019-01-11T01:13:09.000Z,71.26
2019-01-11T01:18:11.499Z,71.41
2019-01-11T01:23:13.677Z,71.56
2019-01-11T01:28:16.035Z,71.78
2019-01-11T01:33:18.647Z,71.48
2019-01-11T01:38:20.827Z,71.32
2019-01-11T01:43:23.303Z,71.80
2019-01-11T01:48:25.607Z,71.69
2019-01-11T01:53:28.282Z,71.75
2019-01-11T01:58:30.436Z,72.09
2019-01-11T02:03:33.052Z,72.05
2019-01-11T02:08:35.697Z,72.10
2019-01-11T02:13:38.008Z,72.44
2019-01-11T02:18:40.670Z,72.56
2019-01-11T02:23:43.308Z,72.83
2019-01-11T02:28:45.506Z,72.99
2019-01-11T02:33:48.116Z,72.76
2019-01-11T02:38:50.528Z,73.15
2019-01-11T02:43:52.737Z,73.34
2019-01-11T02:48:55.397Z,73.67
2019-01-11T02:53:57.543Z,73.52
2019-01-11T02:58:59.708Z,74.03
2019-01-11T03:04:02.061Z,74.19
2019-01-11T03:09:06.278Z,74.26
2019-01-11T03:14:08.777Z,74.84
2019-01-11T03:19:10.956Z,74.89
2019-01-11T03:24:13.141Z,75.50
2019-01-11T03:29:15.315Z,75.69
2019-01-11T03:34:17.501Z,75.60
2019-01-11T03:39:20.072Z,75.86
2019-01-11T03:44:22.289Z,76.53
2019-01-11T03:49:24.544Z,76.60
2019-01-11T03:54:26.751Z,77.21
2019-01-11T03:59:29.652Z,76.99
2019-01-11T04:04:31.834Z,77.18
2019-01-11T04:09:34.011Z,77.16
2019-01-11T04:14:36.723Z,77.81
2019-01-11T04:19:38.930Z,77.71
2019-01-11T04:25:03.232Z,77.98
2019-01-11T04:30:13.988Z,77.99
2019-01-11T04:35:18.696Z,78.41
2019-01-11T04:40:21.422Z,78.75
2019-01-11T04:45:24.405Z,79.26
2019-01-11T04:50:26.729Z,78.97
2019-01-11T04:55:28.905Z,79.71
2019-01-11T05:00:31.317Z,79.82
2019-01-11T05:05:33.938Z,80.34
2019-01-11T05:10:36.597Z,80.93
2019-01-11T05:15:39.365Z,81.05
2019-01-11T05:20:41.781Z,80.96
2019-01-11T05:25:44.222Z,81.15
2019-01-11T05:30:46.635Z,81.56
2019-01-11T05:35:48.840Z,81.84
2019-01-11T05:40:51.077Z,82.22
2019-01-11T05:45:53.441Z,82.22
2019-01-11T05:50:56.147Z,82.41
2019-01-11T05:56:01.645Z,82.76
2019-01-11T06:01:04.337Z,82.66
2019-01-11T06:06:06.966Z,82.77
2019-01-11T06:11:09.420Z,83.10
2019-01-11T06:16:12.395Z,82.95
2019-01-11T06:21:14.851Z,83.27
2019-01-11T06:26:17.141Z,83.35
2019-01-11T06:31:19.634Z,83.27
2019-01-11T06:36:22.175Z,83.35
2019-01-11T06:41:26.718Z,83.58
2019-01-11T06:46:29.153Z,83.51
2019-01-11T06:51:32.057Z,83.39
2019-01-11T06:56:34.963Z,83.37
2019-01-11T07:01:37.739Z,83.76
2019-01-11T07:06:40.390Z,83.54
2019-01-11T07:11:44.043Z,83.61
2019-01-11T07:16:46.338Z,83.50
2019-01-11T07:21:48.491Z,83.67
2019-01-11T07:26:50.634Z,83.61
2019-01-11T07:31:53.080Z,83.76
2019-01-11T07:36:56.083Z,83.77
2019-01-11T07:41:58.690Z,83.80
2019-01-11T07:47:01.260Z,83.81
2019-01-11T07:52:04.271Z,83.82
2019-01-11T07:57:06.733Z,83.65
2019-01-11T08:02:09.373Z,83.89
2019-01-11T08:07:11.709Z,83.78
2019-01-11T08:12:13.909Z,83.71
2019-01-11T08:17:16.607Z,83.54
2019-01-11T08:22:33.692Z,83.62
2019-01-11T08:27:36.294Z,83.67
2019-01-11T08:32:39.344Z,83.80
2019-01-11T08:37:42.044Z,83.74
2019-01-11T08:42:44.374Z,83.70
2019-01-11T08:47:46.960Z,83.67
2019-01-11T08:52:49.299Z,83.88
2019-01-11T08:57:51.567Z,83.78
2019-01-11T09:02:53.758Z,84.12
2019-01-11T09:07:56.155Z,84.09
2019-01-11T09:12:59.107Z,84.32
2019-01-11T09:18:11.872Z,84.63
2019-01-11T09:23:14.664Z,84.73
2019-01-11T09:28:17.104Z,84.99
2019-01-11T09:33:20.577Z,84.89
2019-01-11T09:38:23.246Z,85.15
2019-01-11T09:43:25.935Z,85.12
2019-01-11T09:48:28.385Z,85.49
2019-01-11T09:53:30.960Z,85.42
2019-01-11T09:58:33.644Z,85.39
2019-01-11T10:03:36.581Z,85.39
2019-01-11T10:08:38.762Z,85.34
2019-01-11T10:13:40.902Z,85.54
2019-01-11T10:18:43.140Z,85.35
2019-01-11T10:23:45.382Z,85.40
2019-01-11T10:28:48.047Z,85.66
2019-01-11T10:33:50.757Z,85.62
2019-01-11T10:38:53.064Z,85.68
2019-01-11T10:43:55.478Z,85.82
2019-01-11T10:48:57.895Z,85.91
2019-01-11T10:54:01.855Z,85.92
2019-01-11T10:59:04.858Z,86.18
2019-01-11T11:04:07.659Z,86.10
2019-01-11T11:09:10.130Z,86.05
2019-01-11T11:14:12.546Z,86.11
2019-01-11T11:19:15.522Z,86.30
2019-01-11T11:24:17.939Z,86.11
2019-01-11T11:29:20.569Z,86.00
2019-01-11T11:34:27.230Z,86.12
2019-01-11T11:39:29.860Z,86.04
2019-01-11T11:44:32.483Z,85.97
2019-01-11T11:49:34.701Z,86.10
2019-01-11T11:54:36.870Z,86.10
2019-01-11T11:59:39.422Z,85.97
2019-01-11T12:04:42.325Z,86.14
2019-01-11T12:09:44.814Z,86.10
2019-01-11T12:14:46.946Z,86.20
2019-01-11T12:19:49.640Z,86.10
2019-01-11T12:24:52.144Z,85.98
2019-01-11T12:29:54.781Z,86.03
2019-01-11T12:34:57.069Z,85.96
2019-01-11T12:40:00.321Z,86.13
2019-01-11T12:45:04.645Z,86.13
2019-01-11T12:50:12.316Z,86.15
2019-01-11T12:55:15.255Z,86.03
2019-01-11T13:00:18.082Z,85.94
2019-01-11T13:05:20.921Z,85.94
2019-01-11T13:10:23.138Z,85.90
2019-01-11T13:15:26.275Z,85.84
2019-01-11T13:20:28.855Z,85.83
2019-01-11T13:25:32.346Z,85.96
2019-01-11T13:30:35.047Z,86.09
2019-01-11T13:35:37.291Z,86.06
2019-01-11T13:40:39.743Z,86.09
2019-01-11T13:45:42.635Z,86.07
2019-01-11T13:50:45.322Z,86.04
2019-01-11T13:55:47.909Z,86.01
2019-01-11T14:00:50.420Z,86.09
2019-01-11T14:05:52.607Z,86.05
2019-01-11T14:10:55.356Z,86.01
2019-01-11T14:15:57.609Z,86.06
2019-01-11T14:21:00.499Z,86.13
2019-01-11T14:26:02.759Z,86.13
2019-01-11T14:31:05.279Z,86.19
2019-01-11T14:36:07.773Z,86.21
2019-01-11T14:41:11.085Z,86.20
2019-01-11T14:46:13.651Z,86.27
2019-01-11T14:51:15.905Z,86.30
2019-01-11T14:56:18.140Z,86.29
2019-01-11T15:01:20.365Z,86.27
2019-01-11T15:06:23.321Z,86.33
2019-01-11T15:11:25.733Z,86.36
2019-01-11T15:16:28.180Z,86.37
2019-01-11T15:21:30.373Z,86.41
2019-01-11T15:26:33.295Z,86.40
2019-01-11T15:31:36.056Z,86.40
2019-01-11T15:36:38.148Z,86.40
2019-01-11T15:41:40.821Z,86.41
2019-01-11T15:46:43.621Z,86.41
2019-01-11T15:51:45.821Z,86.49
2019-01-11T15:56:48.509Z,86.48
2019-01-11T16:01:53.890Z,86.57
2019-01-11T16:06:56.064Z,86.53
2019-01-11T16:12:07.083Z,86.56
2019-01-11T16:17:12.667Z,86.56
2019-01-11T16:22:15.532Z,86.62
2019-01-11T16:27:18.639Z,86.62
2019-01-11T16:32:20.915Z,86.64
2019-01-11T16:37:23.526Z,86.63
2019-01-11T16:42:25.812Z,86.69
2019-01-11T16:47:28.297Z,86.66
2019-01-11T16:52:30.600Z,86.75
2019-01-11T16:57:33.313Z,86.66
2019-01-11T17:02:36.732Z,86.65
2019-01-11T17:07:39.571Z,86.65
2019-01-11T17:12:42.192Z,86.63
2019-01-11T17:17:44.417Z,86.58
2019-01-11T17:22:52.760Z,86.53
2019-01-11T17:27:50.854Z,86.48
2019-01-11T17:32:54.457Z,86.47
2019-01-11T17:37:57.343Z,86.40
2019-01-11T17:42:59.529Z,86.36
2019-01-11T17:48:03.033Z,86.34
2019-01-11T17:53:05.509Z,86.28
2019-01-11T17:58:07.687Z,86.24
2019-01-11T18:03:10.096Z,86.20
2019-01-11T18:08:12.434Z,86.16
2019-01-11T18:13:15.800Z,86.12
2019-01-11T18:18:18.106Z,86.01
2019-01-11T18:23:20.597Z,85.93
2019-01-11T18:28:22.987Z,85.86
2019-01-11T18:33:25.218Z,85.72
2019-01-11T18:38:27.531Z,85.63
2019-01-11T18:43:29.914Z,85.51
2019-01-11T18:48:32.059Z,85.37
2019-01-11T18:53:34.194Z,85.26
2019-01-11T18:58:36.891Z,85.14
2019-01-11T19:03:39.339Z,84.97
2019-01-11T19:08:42.003Z,84.83
2019-01-11T19:13:44.195Z,84.75
2019-01-11T19:18:47.826Z,84.60
2019-01-11T19:23:50.473Z,84.40
2019-01-11T19:28:52.864Z,84.25
2019-01-11T19:33:55.515Z,84.12
2019-01-11T19:38:58.291Z,84.01
2019-01-11T19:44:02.199Z,83.90
2019-01-11T19:49:05.216Z,83.75
2019-01-11T19:54:08.209Z,83.64
2019-01-11T19:59:10.478Z,83.57
2019-01-11T20:04:12.885Z,83.44
2019-01-11T20:09:15.080Z,83.36
2019-01-11T20:14:18.025Z,83.29
2019-01-11T20:19:20.605Z,83.20
2019-01-11T20:24:23.512Z,83.22
2019-01-11T20:29:25.870Z,83.11
2019-01-11T20:34:28.161Z,83.04
2019-01-11T20:39:30.458Z,82.97
2019-01-11T20:44:32.663Z,82.86
2019-01-11T20:49:35.340Z,82.77
2019-01-11T20:54:37.627Z,82.66
2019-01-11T20:59:40.041Z,82.55
2019-01-11T21:04:42.552Z,82.45
2019-01-11T21:09:45.199Z,82.33
2019-01-11T21:14:47.713Z,82.31
2019-01-11T21:19:50.219Z,82.14
2019-01-11T21:24:52.683Z,82.06
2019-01-11T21:29:55.554Z,81.98
2019-01-11T21:34:57.797Z,81.83
2019-01-11T21:40:00.518Z,81.75
2019-01-11T21:45:04.342Z,81.64
2019-01-11T21:50:14.611Z,81.66
2019-01-11T21:55:17.307Z,81.62
2019-01-11T22:00:32.804Z,81.49
2019-01-11T22:05:35.109Z,81.36
2019-01-11T22:10:37.384Z,81.09
2019-01-11T22:15:39.603Z,81.02
2019-01-11T22:20:42.343Z,80.84
2019-01-11T22:25:45.060Z,80.76
2019-01-11T22:30:47.555Z,80.64
2019-01-11T22:35:49.746Z,80.47
2019-01-11T22:40:51.966Z,80.26
2019-01-11T22:45:54.205Z,80.19
2019-01-11T22:50:56.396Z,80.08
2019-01-11T22:55:58.999Z,79.93
2019-01-11T23:01:50.133Z,79.78
2019-01-11T23:07:17.431Z,79.51
2019-01-11T23:12:57.545Z,79.31
2019-01-11T23:18:07.899Z,79.15
2019-01-11T23:23:10.120Z,78.87
2019-01-11T23:28:12.852Z,78.68
2019-01-11T23:33:15.196Z,78.39
2019-01-11T23:38:17.488Z,78.23
2019-01-11T23:43:19.910Z,78.10
2019-01-11T23:48:23.419Z,77.93
2019-01-11T23:53:25.629Z,77.75
2019-01-11T23:58:28.565Z,77.52
